createdAt,value
2022-11-05T00:02:12.652Z,13.18
2022-11-05T00:05:00.036Z,12.86
2022-11-05T00:07:51.194Z,12.58
2022-11-05T00:10:23.426Z,12.82
2022-11-05T00:13:10.970Z,12.73
2022-11-05T00:15:57.316Z,12.31
2022-11-05T00:18:26.261Z,12.97
2022-11-05T00:20:56.273Z,12.56
2022-11-05T00:23:41.883Z,12.75
2022-11-05T00:26:12.124Z,12.72
2022-11-05T00:28:44.123Z,12.89
2022-11-05T00:31:14.764Z,13.07
2022-11-05T00:33:44.890Z,13.11
2022-11-05T00:36:14.783Z,13.18
2022-11-05T00:38:43.361Z,13.29
2022-11-05T00:41:11.699Z,12.02
2022-11-05T00:43:57.519Z,12.15
2022-11-05T00:46:25.984Z,12.23
2022-11-05T00:49:11.890Z,12.25
2022-11-05T00:51:41.883Z,11.91
2022-11-05T00:54:10.600Z,11.75
2022-11-05T00:56:39.286Z,11.75
2022-11-05T00:59:07.963Z,11.74
2022-11-05T01:01:36.497Z,11.32
2022-11-05T01:04:05.272Z,11.44
2022-11-05T01:06:33.811Z,11.97
2022-11-05T01:09:03.782Z,11.56
2022-11-05T01:11:35.300Z,11.61
2022-11-05T01:14:05.294Z,11.88
2022-11-05T01:16:34.295Z,11.81
2022-11-05T01:19:03.490Z,12.09
2022-11-05T01:21:32.114Z,11.77
2022-11-05T01:24:00.662Z,11.98
2022-11-05T01:26:30.434Z,11.57
2022-11-05T01:29:01.110Z,11.95
2022-11-05T01:31:30.016Z,11.76
2022-11-05T01:33:58.626Z,11.82
2022-11-05T01:36:27.231Z,11.75
2022-11-05T01:38:55.701Z,11.62
2022-11-05T01:41:24.120Z,11.56
2022-11-05T01:43:56.601Z,11.59
2022-11-05T01:46:29.748Z,10.59
2022-11-05T01:49:03.546Z,11.66
2022-11-05T01:51:32.402Z,11.85
2022-11-05T01:54:03.685Z,11.45
2022-11-05T01:56:35.687Z,11.76
2022-11-05T01:59:12.340Z,11.82
2022-11-05T02:01:40.742Z,11.80
2022-11-05T02:04:13.257Z,11.72
2022-11-05T02:06:46.494Z,11.75
2022-11-05T02:09:19.331Z,11.78
2022-11-05T02:11:48.777Z,11.83
2022-11-05T02:14:21.588Z,11.72
2022-11-05T02:16:54.707Z,11.55
2022-11-05T02:19:52.776Z,11.70
2022-11-05T02:22:39.473Z,11.71
2022-11-05T02:25:28.980Z,11.88
2022-11-05T02:28:15.010Z,11.80
2022-11-05T02:30:49.851Z,11.77
2022-11-05T02:33:28.787Z,11.78
2022-11-05T02:36:09.079Z,11.31
2022-11-05T02:38:42.211Z,11.50
2022-11-05T02:41:19.899Z,11.43
2022-11-05T02:43:58.676Z,11.51
2022-11-05T02:46:36.726Z,11.45
2022-11-05T02:49:15.885Z,11.53
2022-11-05T02:51:53.641Z,11.51
2022-11-05T02:54:28.093Z,11.34
2022-11-05T02:57:00.446Z,11.00
2022-11-05T02:59:28.645Z,11.23
2022-11-05T03:02:00.282Z,11.20
2022-11-05T03:04:29.590Z,11.40
2022-11-05T03:07:18.849Z,11.35
2022-11-05T03:10:10.776Z,11.21
2022-11-05T03:12:50.023Z,11.49
2022-11-05T03:15:27.949Z,11.36
2022-11-05T03:18:05.576Z,11.37
2022-11-05T03:20:40.155Z,11.33
2022-11-05T03:23:13.939Z,11.00
2022-11-05T03:25:48.103Z,11.43
2022-11-05T03:28:18.481Z,11.34
2022-11-05T03:30:49.431Z,11.27
2022-11-05T03:33:23.161Z,11.12
2022-11-05T03:35:55.101Z,11.14
2022-11-05T03:38:28.260Z,10.42
2022-11-05T03:40:58.828Z,10.95
2022-11-05T03:43:31.528Z,11.00
2022-11-05T03:46:04.431Z,11.00
2022-11-05T03:48:40.017Z,11.12
2022-11-05T03:51:14.122Z,11.41
2022-11-05T03:53:47.679Z,11.43
2022-11-05T03:56:22.359Z,11.46
2022-11-05T03:58:56.035Z,11.55
2022-11-05T04:01:27.147Z,11.10
2022-11-05T04:03:57.033Z,10.91
2022-11-05T04:06:42.898Z,10.76
2022-11-05T04:09:29.351Z,11.27
2022-11-05T04:12:14.835Z,11.57
2022-11-05T04:14:43.202Z,11.69
2022-11-05T04:17:10.526Z,11.54
2022-11-05T04:19:59.192Z,11.54
2022-11-05T04:22:46.585Z,11.71
2022-11-05T04:25:16.031Z,11.62
2022-11-05T04:27:44.874Z,11.44
2022-11-05T04:30:19.676Z,11.71
2022-11-05T04:33:02.557Z,11.37
2022-11-05T04:35:34.516Z,11.57
2022-11-05T04:38:03.212Z,11.48
2022-11-05T04:40:31.976Z,10.93
2022-11-05T04:43:00.451Z,11.51
2022-11-05T04:45:30.805Z,11.06
2022-11-05T04:47:59.084Z,11.33
2022-11-05T04:50:27.596Z,11.01
2022-11-05T04:52:57.342Z,11.03
2022-11-05T04:55:25.787Z,10.65
2022-11-05T04:57:55.524Z,10.79
2022-11-05T05:00:25.013Z,10.19
2022-11-05T05:02:53.545Z,10.61
2022-11-05T05:05:23.205Z,10.60
2022-11-05T05:07:51.696Z,10.38
2022-11-05T05:10:21.413Z,10.21
2022-11-05T05:12:49.713Z,9.91
2022-11-05T05:15:18.054Z,10.20
2022-11-05T05:17:51.067Z,9.96
2022-11-05T05:20:36.577Z,9.80
2022-11-05T05:23:05.382Z,10.13
2022-11-05T05:25:34.967Z,10.03
2022-11-05T05:28:03.238Z,9.29
2022-11-05T05:30:31.558Z,9.50
2022-11-05T05:33:04.019Z,9.83
2022-11-05T05:35:32.420Z,9.23
2022-11-05T05:38:00.603Z,9.06
2022-11-05T05:40:28.839Z,9.03
2022-11-05T05:42:58.508Z,9.88
2022-11-05T05:45:26.781Z,9.95
2022-11-05T05:47:57.010Z,10.70
2022-11-05T05:50:25.297Z,10.53
2022-11-05T05:52:53.705Z,10.66
2022-11-05T05:55:21.995Z,10.56
2022-11-05T05:57:50.286Z,10.48
2022-11-05T06:00:20.137Z,10.44
2022-11-05T06:02:48.516Z,10.46
2022-11-05T06:05:17.165Z,10.84
2022-11-05T06:07:45.393Z,10.54
2022-11-05T06:10:13.703Z,10.62
2022-11-05T06:12:42.006Z,11.01
2022-11-05T06:15:10.977Z,11.30
2022-11-05T06:17:40.585Z,11.63
2022-11-05T06:20:10.045Z,11.65
2022-11-05T06:22:38.297Z,11.54
2022-11-05T06:25:07.829Z,11.67
2022-11-05T06:27:39.631Z,11.13
2022-11-05T06:30:09.295Z,11.88
2022-11-05T06:32:37.542Z,11.16
2022-11-05T06:35:07.559Z,11.98
2022-11-05T06:37:35.870Z,12.61
2022-11-05T06:40:04.266Z,12.90
2022-11-05T06:42:32.571Z,13.46
2022-11-05T06:45:00.793Z,13.49
2022-11-05T06:47:29.155Z,13.69
2022-11-05T06:49:57.560Z,13.97
2022-11-05T06:52:31.339Z,14.52
2022-11-05T06:54:59.742Z,15.00
2022-11-05T06:57:28.114Z,15.06
2022-11-05T07:00:01.376Z,15.31
2022-11-05T07:02:31.644Z,15.47
2022-11-05T07:04:59.946Z,15.75
2022-11-05T07:07:29.614Z,16.34
2022-11-05T07:09:57.810Z,16.53
2022-11-05T07:12:26.118Z,16.48
2022-11-05T07:14:54.361Z,16.47
2022-11-05T07:17:23.763Z,16.19
2022-11-05T07:19:52.023Z,16.39
2022-11-05T07:22:20.227Z,17.09
2022-11-05T07:24:50.439Z,18.07
2022-11-05T07:27:18.793Z,17.83
2022-11-05T07:29:46.985Z,18.06
2022-11-05T07:32:15.282Z,17.93
2022-11-05T07:34:43.639Z,19.08
2022-11-05T07:37:11.818Z,19.83
2022-11-05T07:39:40.098Z,19.24
2022-11-05T07:42:13.451Z,19.32
2022-11-05T07:44:41.726Z,19.51
2022-11-05T07:47:10.012Z,19.54
2022-11-05T07:49:38.207Z,19.63
2022-11-05T07:52:06.703Z,20.02
2022-11-05T07:54:35.024Z,19.61
2022-11-05T07:57:03.317Z,19.96
2022-11-05T07:59:33.144Z,20.74
2022-11-05T08:02:01.597Z,20.92
2022-11-05T08:04:30.036Z,21.12
2022-11-05T08:06:58.324Z,20.79
2022-11-05T08:09:26.628Z,20.65
2022-11-05T08:11:59.838Z,21.85
2022-11-05T08:14:32.233Z,22.07
2022-11-05T08:17:00.474Z,22.42
2022-11-05T08:19:28.715Z,21.44
2022-11-05T08:21:57.003Z,22.11
2022-11-05T08:24:25.308Z,22.42
2022-11-05T08:26:54.601Z,22.91
2022-11-05T08:29:22.864Z,23.33
2022-11-05T08:31:52.549Z,22.07
2022-11-05T08:34:20.877Z,23.31
2022-11-05T08:36:49.228Z,23.15
2022-11-05T08:39:19.069Z,23.22
2022-11-05T08:41:47.324Z,22.88
2022-11-05T08:44:15.611Z,24.08
2022-11-05T08:46:43.891Z,24.74
2022-11-05T08:49:13.612Z,25.51
2022-11-05T08:51:41.858Z,25.75
2022-11-05T08:54:10.320Z,25.46
2022-11-05T08:56:38.613Z,25.10
2022-11-05T08:59:07.408Z,25.82
2022-11-05T09:01:36.046Z,26.06
2022-11-05T09:04:04.819Z,25.93
2022-11-05T09:06:34.491Z,25.97
2022-11-05T09:09:02.823Z,25.80
2022-11-05T09:11:56.918Z,25.82
2022-11-05T09:14:19.292Z,26.66
2022-11-05T09:16:47.622Z,27.47
2022-11-05T09:19:15.831Z,26.61
2022-11-05T09:21:45.759Z,25.64
2022-11-05T09:24:14.011Z,26.30
2022-11-05T09:26:42.292Z,26.31
2022-11-05T09:29:14.349Z,26.40
2022-11-05T09:31:43.298Z,27.95
2022-11-05T09:34:11.551Z,28.43
2022-11-05T09:36:39.867Z,26.91
2022-11-05T09:39:09.747Z,26.43
2022-11-05T09:41:40.942Z,26.34
2022-11-05T09:44:14.943Z,26.73
2022-11-05T09:46:47.284Z,27.04
2022-11-05T09:49:25.782Z,26.84
2022-11-05T09:51:55.539Z,26.60
2022-11-05T09:54:29.558Z,26.86
2022-11-05T09:56:58.085Z,27.45
2022-11-05T09:59:44.499Z,27.82
2022-11-05T10:02:20.744Z,27.95
2022-11-05T10:05:02.400Z,27.02
2022-11-05T10:07:41.624Z,28.15
2022-11-05T10:10:28.003Z,28.50
2022-11-05T10:13:00.601Z,28.14
2022-11-05T10:15:32.021Z,27.41
2022-11-05T10:18:04.832Z,29.05
2022-11-05T10:20:35.270Z,29.35
2022-11-05T10:23:11.152Z,28.94
2022-11-05T10:25:44.631Z,29.30
2022-11-05T10:28:17.937Z,28.77
2022-11-05T10:30:48.096Z,29.75
2022-11-05T10:33:26.502Z,30.31
2022-11-05T10:35:59.131Z,29.09
2022-11-05T10:38:27.413Z,30.11
2022-11-05T10:41:10.881Z,29.62
2022-11-05T10:43:46.023Z,29.85
2022-11-05T10:46:26.950Z,30.73
2022-11-05T10:49:07.919Z,30.69
2022-11-05T10:51:36.526Z,31.21
2022-11-05T10:54:12.517Z,31.18
2022-11-05T10:56:43.035Z,29.17
2022-11-05T10:59:23.164Z,28.12
2022-11-05T11:01:58.331Z,27.97
2022-11-05T11:04:32.356Z,29.10
2022-11-05T11:07:05.483Z,30.44
2022-11-05T11:09:37.033Z,30.92
2022-11-05T11:12:15.271Z,29.33
2022-11-05T11:14:44.162Z,29.09
2022-11-05T11:17:27.196Z,28.85
2022-11-05T11:20:22.148Z,29.83
2022-11-05T11:23:13.299Z,28.58
2022-11-05T11:25:48.995Z,29.90
2022-11-05T11:28:24.082Z,29.41
2022-11-05T11:30:57.019Z,29.08
2022-11-05T11:33:28.951Z,28.78
2022-11-05T11:35:57.969Z,27.60
2022-11-05T11:38:30.740Z,28.56
2022-11-05T11:41:09.123Z,27.64
2022-11-05T11:43:43.803Z,27.78
2022-11-05T11:46:16.192Z,26.81
2022-11-05T11:48:47.696Z,26.12
2022-11-05T11:51:23.380Z,25.83
2022-11-05T11:53:51.608Z,25.63
2022-11-05T11:56:21.823Z,26.04
2022-11-05T11:58:52.806Z,25.17
2022-11-05T12:02:07.534Z,25.53
2022-11-05T12:05:14.222Z,24.39
2022-11-05T12:07:52.996Z,23.55
2022-11-05T12:10:35.056Z,24.86
2022-11-05T12:13:28.435Z,24.99
2022-11-05T12:16:03.133Z,24.64
2022-11-05T12:18:41.232Z,24.24
2022-11-05T12:21:34.662Z,24.10
2022-11-05T12:24:31.848Z,23.77
2022-11-05T12:27:11.177Z,24.04
2022-11-05T12:29:52.732Z,23.47
2022-11-05T12:32:48.822Z,23.39
2022-11-05T12:35:31.895Z,23.18
2022-11-05T12:38:10.844Z,23.04
2022-11-05T12:40:49.800Z,22.89
2022-11-05T12:43:27.398Z,22.20
2022-11-05T12:46:03.873Z,22.38
2022-11-05T12:48:49.742Z,22.97
2022-11-05T12:51:30.684Z,22.50
2022-11-05T12:54:12.627Z,22.11
2022-11-05T12:56:44.562Z,22.47
2022-11-05T12:59:20.716Z,22.52
2022-11-05T13:01:55.689Z,22.90
2022-11-05T13:04:35.268Z,22.68
2022-11-05T13:07:09.183Z,22.99
2022-11-05T13:09:43.357Z,22.64
2022-11-05T13:12:14.867Z,22.55
2022-11-05T13:14:49.324Z,23.16
2022-11-05T13:17:20.883Z,23.19
2022-11-05T13:20:00.931Z,23.20
2022-11-05T13:22:36.980Z,22.33
2022-11-05T13:25:13.674Z,23.05
2022-11-05T13:27:51.760Z,23.04
2022-11-05T13:30:22.711Z,22.86
2022-11-05T13:32:58.060Z,23.04
2022-11-05T13:35:31.188Z,22.79
2022-11-05T13:38:27.962Z,22.72
2022-11-05T13:41:13.625Z,22.63
2022-11-05T13:44:21.978Z,22.42
2022-11-05T13:47:19.824Z,22.50
2022-11-05T13:50:35.435Z,21.66
2022-11-05T13:53:31.403Z,21.71
2022-11-05T13:56:12.591Z,21.71
2022-11-05T13:58:59.522Z,21.62
2022-11-05T14:01:44.027Z,21.47
2022-11-05T14:04:23.642Z,21.01
2022-11-05T14:06:52.115Z,21.26
2022-11-05T14:09:27.601Z,21.85
2022-11-05T14:11:57.909Z,21.34
2022-11-05T14:14:29.302Z,21.40
2022-11-05T14:17:15.975Z,21.30
2022-11-05T14:20:10.597Z,21.58
2022-11-05T14:22:41.981Z,21.36
2022-11-05T14:26:02.057Z,21.00
2022-11-05T14:28:44.387Z,20.52
2022-11-05T14:32:07.120Z,20.30
2022-11-05T14:34:45.257Z,20.47
2022-11-05T14:37:39.553Z,20.38
2022-11-05T14:40:37.659Z,20.60
2022-11-05T14:43:10.356Z,20.09
2022-11-05T14:45:42.322Z,20.07
2022-11-05T14:48:37.649Z,19.78
2022-11-05T14:51:27.908Z,20.14
2022-11-05T14:54:04.184Z,20.23
2022-11-05T14:56:43.987Z,19.91
2022-11-05T14:59:51.985Z,20.44
2022-11-05T15:02:26.007Z,20.18
2022-11-05T15:05:43.147Z,20.31
2022-11-05T15:08:32.842Z,20.39
2022-11-05T15:11:12.691Z,20.07
2022-11-05T15:13:50.883Z,19.49
2022-11-05T15:16:25.037Z,20.08
2022-11-05T15:18:56.915Z,19.22
2022-11-05T15:21:26.698Z,18.78
2022-11-05T15:23:57.608Z,18.65
2022-11-05T15:26:30.628Z,18.43
2022-11-05T15:28:59.122Z,18.72
2022-11-05T15:31:34.933Z,18.41
2022-11-05T15:34:21.722Z,18.36
2022-11-05T15:36:53.615Z,18.61
2022-11-05T15:39:30.846Z,18.15
2022-11-05T15:42:06.072Z,18.75
2022-11-05T15:44:39.318Z,19.31
2022-11-05T15:47:22.857Z,18.88
2022-11-05T15:49:56.102Z,19.22
2022-11-05T15:52:26.305Z,18.86
2022-11-05T15:55:19.029Z,18.23
2022-11-05T15:57:51.269Z,18.59
2022-11-05T16:00:22.674Z,17.99
2022-11-05T16:02:56.098Z,18.88
2022-11-05T16:05:28.169Z,19.00
2022-11-05T16:07:59.517Z,18.48
2022-11-05T16:10:31.536Z,18.68
2022-11-05T16:13:24.122Z,18.93
2022-11-05T16:15:57.053Z,18.89
2022-11-05T16:18:30.779Z,18.74
2022-11-05T16:21:08.544Z,18.39
2022-11-05T16:23:45.879Z,18.29
2022-11-05T16:27:00.578Z,18.52
2022-11-05T16:29:25.223Z,17.92
2022-11-05T16:31:55.327Z,18.12
2022-11-05T16:34:28.807Z,18.25
2022-11-05T16:37:00.647Z,18.30
2022-11-05T16:39:29.103Z,18.34
2022-11-05T16:41:57.939Z,18.36
2022-11-05T16:44:28.040Z,17.88
2022-11-05T16:46:56.852Z,17.97
2022-11-05T16:49:25.124Z,18.64
2022-11-05T16:51:53.963Z,18.63
2022-11-05T16:54:23.679Z,18.39
2022-11-05T16:56:52.010Z,18.54
2022-11-05T16:59:20.453Z,18.05
2022-11-05T17:01:53.113Z,18.17
2022-11-05T17:04:24.005Z,18.25
2022-11-05T17:06:52.563Z,18.15
2022-11-05T17:09:31.984Z,17.56
2022-11-05T17:12:02.588Z,18.04
2022-11-05T17:14:30.978Z,17.53
2022-11-05T17:17:01.893Z,17.21
2022-11-05T17:19:30.341Z,17.29
2022-11-05T17:21:58.650Z,17.69
2022-11-05T17:24:28.424Z,17.87
2022-11-05T17:26:56.778Z,17.95
2022-11-05T17:29:25.161Z,17.89
2022-11-05T17:31:53.492Z,17.36
2022-11-05T17:34:21.767Z,16.85
2022-11-05T17:36:50.105Z,17.22
2022-11-05T17:39:18.475Z,16.95
2022-11-05T17:41:48.170Z,16.93
2022-11-05T17:44:16.430Z,16.74
2022-11-05T17:46:44.727Z,16.78
2022-11-05T17:49:12.978Z,16.91
2022-11-05T17:51:41.174Z,17.18
2022-11-05T17:54:09.531Z,17.15
2022-11-05T17:56:44.439Z,17.61
2022-11-05T17:59:14.829Z,17.26
2022-11-05T18:01:43.825Z,17.22
2022-11-05T18:04:12.243Z,17.05
2022-11-05T18:06:41.618Z,17.06
2022-11-05T18:09:11.417Z,17.34
2022-11-05T18:11:40.924Z,17.62
2022-11-05T18:14:09.386Z,17.34
2022-11-05T18:16:39.508Z,17.34
2022-11-05T18:19:07.868Z,17.02
2022-11-05T18:21:36.286Z,17.26
2022-11-05T18:24:05.660Z,17.17
2022-11-05T18:26:34.195Z,17.32
2022-11-05T18:29:03.216Z,17.41
2022-11-05T18:31:31.592Z,17.26
2022-11-05T18:34:01.572Z,16.65
2022-11-05T18:36:31.432Z,16.26
2022-11-05T18:39:00.648Z,16.05
2022-11-05T18:41:29.462Z,15.62
2022-11-05T18:44:00.208Z,15.66
2022-11-05T18:46:55.963Z,16.03
2022-11-05T18:49:18.470Z,16.32
2022-11-05T18:51:47.208Z,16.52
2022-11-05T18:54:15.599Z,16.26
2022-11-05T18:56:46.141Z,16.31
2022-11-05T18:59:35.575Z,16.49
2022-11-05T19:02:04.267Z,16.50
2022-11-05T19:04:34.174Z,16.33
2022-11-05T19:07:05.092Z,16.37
2022-11-05T19:09:34.764Z,15.96
2022-11-05T19:12:03.124Z,16.38
2022-11-05T19:14:31.388Z,16.61
2022-11-05T19:17:00.318Z,16.63
2022-11-05T19:19:28.946Z,16.40
2022-11-05T19:21:58.620Z,16.15
2022-11-05T19:24:26.959Z,16.34
2022-11-05T19:26:55.196Z,16.45
2022-11-05T19:29:23.514Z,16.63
2022-11-05T19:31:51.791Z,16.89
2022-11-05T19:34:20.728Z,16.92
2022-11-05T19:36:49.040Z,16.89
2022-11-05T19:39:18.709Z,16.76
2022-11-05T19:41:47.929Z,16.91
2022-11-05T19:44:16.187Z,16.92
2022-11-05T19:46:45.201Z,16.84
2022-11-05T19:49:13.806Z,17.05
2022-11-05T19:51:42.248Z,16.85
2022-11-05T19:54:11.006Z,17.01
2022-11-05T19:56:40.636Z,17.13
2022-11-05T19:59:08.958Z,16.91
2022-11-05T20:01:37.346Z,16.21
2022-11-05T20:04:06.344Z,16.54
2022-11-05T20:06:38.505Z,16.60
2022-11-05T20:09:25.787Z,16.07
2022-11-05T20:11:57.235Z,16.47
2022-11-05T20:14:27.111Z,16.30
2022-11-05T20:16:55.658Z,16.30
2022-11-05T20:19:24.403Z,16.93
2022-11-05T20:21:52.932Z,16.63
2022-11-05T20:24:25.140Z,16.97
2022-11-05T20:26:56.093Z,17.20
2022-11-05T20:29:30.614Z,17.14
2022-11-05T20:32:05.102Z,17.19
2022-11-05T20:34:35.070Z,16.54
2022-11-05T20:37:03.363Z,16.70
2022-11-05T20:39:31.763Z,17.05
2022-11-05T20:42:01.734Z,17.08
2022-11-05T20:44:30.481Z,17.00
2022-11-05T20:47:01.928Z,17.15
2022-11-05T20:49:30.771Z,17.22
2022-11-05T20:51:59.439Z,17.22
2022-11-05T20:54:27.992Z,17.31
2022-11-05T20:56:56.572Z,17.31
2022-11-05T20:59:26.632Z,16.52
2022-11-05T21:01:54.943Z,16.72
2022-11-05T21:04:24.428Z,17.01
2022-11-05T21:06:53.423Z,17.09
2022-11-05T21:09:21.694Z,17.08
2022-11-05T21:12:07.242Z,17.33
2022-11-05T21:14:37.059Z,17.32
2022-11-05T21:17:05.978Z,17.32
2022-11-05T21:19:35.360Z,17.19
2022-11-05T21:22:04.653Z,17.25
2022-11-05T21:24:33.666Z,17.31
2022-11-05T21:27:01.962Z,17.21
2022-11-05T21:29:30.174Z,16.97
2022-11-05T21:31:59.867Z,16.88
2022-11-05T21:34:28.973Z,16.91
2022-11-05T21:36:57.245Z,16.53
2022-11-05T21:39:25.775Z,16.70
2022-11-05T21:41:54.026Z,16.82
2022-11-05T21:44:22.337Z,16.92
2022-11-05T21:46:52.551Z,17.10
2022-11-05T21:49:22.249Z,16.78
2022-11-05T21:52:07.945Z,16.62
2022-11-05T21:54:53.531Z,16.55
2022-11-05T21:57:39.992Z,16.75
2022-11-05T22:00:11.541Z,16.87
2022-11-05T22:02:40.239Z,17.04
2022-11-05T22:05:10.879Z,16.52
2022-11-05T22:07:40.398Z,16.84
2022-11-05T22:10:15.883Z,16.91
2022-11-05T22:12:45.228Z,16.76
2022-11-05T22:15:14.508Z,16.78
2022-11-05T22:17:46.908Z,16.80
2022-11-05T22:20:17.971Z,16.33
2022-11-05T22:22:46.353Z,16.63
2022-11-05T22:25:15.646Z,16.63
2022-11-05T22:27:44.423Z,16.70
2022-11-05T22:30:14.487Z,16.68
2022-11-05T22:32:42.724Z,16.06
2022-11-05T22:35:11.702Z,16.19
2022-11-05T22:37:41.431Z,16.43
2022-11-05T22:40:10.599Z,15.98
2022-11-05T22:42:38.863Z,16.34
2022-11-05T22:45:08.091Z,16.21
2022-11-05T22:47:36.408Z,16.50
2022-11-05T22:50:06.069Z,16.67
2022-11-05T22:52:34.433Z,16.75
2022-11-05T22:55:06.325Z,16.73
2022-11-05T22:57:34.638Z,17.01
2022-11-05T23:00:02.929Z,17.05
2022-11-05T23:02:31.368Z,17.04
2022-11-05T23:05:01.673Z,17.15
2022-11-05T23:07:47.227Z,16.91
2022-11-05T23:10:34.245Z,17.07
2022-11-05T23:13:02.633Z,17.05
2022-11-05T23:15:48.418Z,17.03
2022-11-05T23:18:33.771Z,17.20
2022-11-05T23:21:22.900Z,16.79
2022-11-05T23:24:06.380Z,16.67
2022-11-05T23:26:54.122Z,16.87
2022-11-05T23:29:24.074Z,17.04
2022-11-05T23:32:09.847Z,16.87
2022-11-05T23:34:39.006Z,16.60
2022-11-05T23:37:25.235Z,16.92
2022-11-05T23:39:53.486Z,16.78
2022-11-05T23:42:40.870Z,16.99
2022-11-05T23:45:28.289Z,16.99
2022-11-05T23:48:13.642Z,16.57
2022-11-05T23:50:42.630Z,16.82
2022-11-05T23:53:10.889Z,16.50
2022-11-05T23:55:39.633Z,16.80
2022-11-05T23:58:10.174Z,16.64
